sensor_id;sensor_type;location;lat;lon;timestamp;temperature;humidity
14604;DHT22;7388;51.078;13.740;2022-08-21T00:00:48;23.80;58.50
14604;DHT22;7388;51.078;13.740;2022-08-21T00:03:14;23.70;58.40
14604;DHT22;7388;51.078;13.740;2022-08-21T00:05:47;23.70;58.40
14604;DHT22;7388;51.078;13.740;2022-08-21T00:08:18;23.70;58.50
14604;DHT22;7388;51.078;13.740;2022-08-21T00:10:45;23.70;58.80
14604;DHT22;7388;51.078;13.740;2022-08-21T00:13:12;23.70;58.70
14604;DHT22;7388;51.078;13.740;2022-08-21T00:15:39;23.70;58.70
14604;DHT22;7388;51.078;13.740;2022-08-21T00:18:07;23.70;58.60
14604;DHT22;7388;51.078;13.740;2022-08-21T00:20:34;23.70;58.50
14604;DHT22;7388;51.078;13.740;2022-08-21T00:23:00;23.80;58.50
14604;DHT22;7388;51.078;13.740;2022-08-21T00:25:26;23.70;58.90
14604;DHT22;7388;51.078;13.740;2022-08-21T00:27:54;23.70;58.70
14604;DHT22;7388;51.078;13.740;2022-08-21T00:30:21;23.70;58.80
14604;DHT22;7388;51.078;13.740;2022-08-21T00:32:47;23.70;58.80
14604;DHT22;7388;51.078;13.740;2022-08-21T00:35:16;23.70;58.80
14604;DHT22;7388;51.078;13.740;2022-08-21T00:37:42;23.70;58.90
14604;DHT22;7388;51.078;13.740;2022-08-21T00:40:13;23.70;58.90
14604;DHT22;7388;51.078;13.740;2022-08-21T00:42:39;23.70;58.90
14604;DHT22;7388;51.078;13.740;2022-08-21T00:45:06;23.70;58.80
14604;DHT22;7388;51.078;13.740;2022-08-21T00:47:32;23.70;58.90
14604;DHT22;7388;51.078;13.740;2022-08-21T00:49:58;23.70;58.80
14604;DHT22;7388;51.078;13.740;2022-08-21T00:52:28;23.70;58.90
14604;DHT22;7388;51.078;13.740;2022-08-21T00:54:55;23.70;58.90
14604;DHT22;7388;51.078;13.740;2022-08-21T00:57:29;23.70;59.00
14604;DHT22;7388;51.078;13.740;2022-08-21T00:59:58;23.70;58.90
14604;DHT22;7388;51.078;13.740;2022-08-21T01:02:25;23.70;58.90
14604;DHT22;7388;51.078;13.740;2022-08-21T01:04:51;23.70;58.90
14604;DHT22;7388;51.078;13.740;2022-08-21T01:07:17;23.70;58.80
14604;DHT22;7388;51.078;13.740;2022-08-21T01:09:46;23.70;58.80
14604;DHT22;7388;51.078;13.740;2022-08-21T01:12:12;23.70;58.60
14604;DHT22;7388;51.078;13.740;2022-08-21T01:14:40;23.80;58.60
14604;DHT22;7388;51.078;13.740;2022-08-21T01:17:10;23.70;58.50
14604;DHT22;7388;51.078;13.740;2022-08-21T01:19:37;23.70;58.40
14604;DHT22;7388;51.078;13.740;2022-08-21T01:22:03;23.70;58.40
14604;DHT22;7388;51.078;13.740;2022-08-21T01:24:29;23.70;58.30
14604;DHT22;7388;51.078;13.740;2022-08-21T01:26:58;23.60;58.20
14604;DHT22;7388;51.078;13.740;2022-08-21T01:32:12;23.60;57.90
14604;DHT22;7388;51.078;13.740;2022-08-21T01:34:41;23.50;57.90
14604;DHT22;7388;51.078;13.740;2022-08-21T01:37:08;23.50;58.00
14604;DHT22;7388;51.078;13.740;2022-08-21T01:39:35;23.40;57.90
14604;DHT22;7388;51.078;13.740;2022-08-21T01:42:01;23.40;58.00
14604;DHT22;7388;51.078;13.740;2022-08-21T01:44:27;23.40;57.90
14604;DHT22;7388;51.078;13.740;2022-08-21T01:46:53;23.40;57.90
14604;DHT22;7388;51.078;13.740;2022-08-21T01:49:20;23.40;57.90
14604;DHT22;7388;51.078;13.740;2022-08-21T01:51:45;23.40;58.00
14604;DHT22;7388;51.078;13.740;2022-08-21T01:54:11;23.30;58.10
14604;DHT22;7388;51.078;13.740;2022-08-21T01:56:39;23.30;58.20
14604;DHT22;7388;51.078;13.740;2022-08-21T01:59:06;23.30;58.10
14604;DHT22;7388;51.078;13.740;2022-08-21T02:01:32;23.20;58.10
14604;DHT22;7388;51.078;13.740;2022-08-21T02:03:57;23.20;58.10
14604;DHT22;7388;51.078;13.740;2022-08-21T02:06:25;23.20;58.30
14604;DHT22;7388;51.078;13.740;2022-08-21T02:08:52;23.30;58.30
14604;DHT22;7388;51.078;13.740;2022-08-21T02:11:18;23.30;58.20
14604;DHT22;7388;51.078;13.740;2022-08-21T02:13:44;23.30;58.40
14604;DHT22;7388;51.078;13.740;2022-08-21T02:16:10;23.30;58.20
14604;DHT22;7388;51.078;13.740;2022-08-21T02:18:36;23.30;58.20
14604;DHT22;7388;51.078;13.740;2022-08-21T02:21:03;23.30;58.30
14604;DHT22;7388;51.078;13.740;2022-08-21T02:23:29;23.30;58.20
14604;DHT22;7388;51.078;13.740;2022-08-21T02:25:57;23.30;58.30
14604;DHT22;7388;51.078;13.740;2022-08-21T02:28:24;23.30;58.30
14604;DHT22;7388;51.078;13.740;2022-08-21T02:30:51;23.30;58.30
14604;DHT22;7388;51.078;13.740;2022-08-21T02:33:18;23.30;58.30
14604;DHT22;7388;51.078;13.740;2022-08-21T02:35:46;23.30;58.30
14604;DHT22;7388;51.078;13.740;2022-08-21T02:38:15;23.30;58.20
14604;DHT22;7388;51.078;13.740;2022-08-21T02:40:44;23.30;58.20
14604;DHT22;7388;51.078;13.740;2022-08-21T02:43:11;23.30;58.20
14604;DHT22;7388;51.078;13.740;2022-08-21T02:45:38;23.30;58.20
14604;DHT22;7388;51.078;13.740;2022-08-21T02:48:10;23.30;58.20
14604;DHT22;7388;51.078;13.740;2022-08-21T02:50:45;23.30;58.20
14604;DHT22;7388;51.078;13.740;2022-08-21T02:53:13;23.30;58.20
14604;DHT22;7388;51.078;13.740;2022-08-21T02:55:46;23.30;58.30
14604;DHT22;7388;51.078;13.740;2022-08-21T02:58:14;23.20;58.20
14604;DHT22;7388;51.078;13.740;2022-08-21T03:00:41;23.30;58.20
14604;DHT22;7388;51.078;13.740;2022-08-21T03:03:07;23.30;58.30
14604;DHT22;7388;51.078;13.740;2022-08-21T03:05:34;23.20;58.10
14604;DHT22;7388;51.078;13.740;2022-08-21T03:08:02;23.20;58.20
14604;DHT22;7388;51.078;13.740;2022-08-21T03:10:28;23.20;58.20
14604;DHT22;7388;51.078;13.740;2022-08-21T03:12:56;23.20;58.20
14604;DHT22;7388;51.078;13.740;2022-08-21T03:15:23;23.20;58.20
14604;DHT22;7388;51.078;13.740;2022-08-21T03:17:50;23.30;58.20
14604;DHT22;7388;51.078;13.740;2022-08-21T03:20:18;23.30;58.30
14604;DHT22;7388;51.078;13.740;2022-08-21T03:22:44;23.30;58.30
14604;DHT22;7388;51.078;13.740;2022-08-21T03:25:10;23.30;58.30
14604;DHT22;7388;51.078;13.740;2022-08-21T03:27:36;23.30;58.30
14604;DHT22;7388;51.078;13.740;2022-08-21T03:30:04;23.20;58.30
14604;DHT22;7388;51.078;13.740;2022-08-21T03:32:31;23.30;58.40
14604;DHT22;7388;51.078;13.740;2022-08-21T03:34:57;23.30;59.00
14604;DHT22;7388;51.078;13.740;2022-08-21T03:37:23;23.30;58.20
14604;DHT22;7388;51.078;13.740;2022-08-21T03:39:50;23.30;58.20
14604;DHT22;7388;51.078;13.740;2022-08-21T03:42:16;23.30;58.20
14604;DHT22;7388;51.078;13.740;2022-08-21T03:44:42;23.10;58.20
14604;DHT22;7388;51.078;13.740;2022-08-21T03:47:08;23.10;58.40
14604;DHT22;7388;51.078;13.740;2022-08-21T03:49:35;23.10;58.50
14604;DHT22;7388;51.078;13.740;2022-08-21T03:52:02;23.00;58.50
14604;DHT22;7388;51.078;13.740;2022-08-21T03:54:29;23.00;58.60
14604;DHT22;7388;51.078;13.740;2022-08-21T03:56:54;23.00;58.70
14604;DHT22;7388;51.078;13.740;2022-08-21T03:59:20;23.00;58.70
14604;DHT22;7388;51.078;13.740;2022-08-21T04:01:57;23.00;58.80
14604;DHT22;7388;51.078;13.740;2022-08-21T04:04:26;23.00;58.60
14604;DHT22;7388;51.078;13.740;2022-08-21T04:06:52;23.00;58.90
14604;DHT22;7388;51.078;13.740;2022-08-21T04:09:18;22.90;58.90
14604;DHT22;7388;51.078;13.740;2022-08-21T04:11:44;22.90;59.00
14604;DHT22;7388;51.078;13.740;2022-08-21T04:14:12;22.90;59.00
14604;DHT22;7388;51.078;13.740;2022-08-21T04:16:40;22.90;59.10
14604;DHT22;7388;51.078;13.740;2022-08-21T04:19:07;23.00;59.20
14604;DHT22;7388;51.078;13.740;2022-08-21T04:21:33;23.00;59.80
14604;DHT22;7388;51.078;13.740;2022-08-21T04:23:59;23.00;59.10
14604;DHT22;7388;51.078;13.740;2022-08-21T04:26:25;23.10;59.10
14604;DHT22;7388;51.078;13.740;2022-08-21T04:28:52;23.10;59.00
14604;DHT22;7388;51.078;13.740;2022-08-21T04:31:18;23.10;59.10
14604;DHT22;7388;51.078;13.740;2022-08-21T04:33:44;23.10;59.10
14604;DHT22;7388;51.078;13.740;2022-08-21T04:36:10;23.10;59.00
14604;DHT22;7388;51.078;13.740;2022-08-21T04:38:37;23.10;59.10
14604;DHT22;7388;51.078;13.740;2022-08-21T04:41:03;23.10;59.10
14604;DHT22;7388;51.078;13.740;2022-08-21T04:43:30;23.10;59.00
14604;DHT22;7388;51.078;13.740;2022-08-21T04:45:56;23.20;59.00
14604;DHT22;7388;51.078;13.740;2022-08-21T04:48:23;23.20;58.90
14604;DHT22;7388;51.078;13.740;2022-08-21T04:50:54;23.20;58.90
14604;DHT22;7388;51.078;13.740;2022-08-21T04:55:54;23.20;59.00
14604;DHT22;7388;51.078;13.740;2022-08-21T04:58:24;23.20;59.10
14604;DHT22;7388;51.078;13.740;2022-08-21T05:00:54;23.20;59.10
14604;DHT22;7388;51.078;13.740;2022-08-21T05:03:21;23.20;59.10
14604;DHT22;7388;51.078;13.740;2022-08-21T05:05:48;23.20;59.10
14604;DHT22;7388;51.078;13.740;2022-08-21T05:08:18;23.20;59.00
14604;DHT22;7388;51.078;13.740;2022-08-21T05:10:45;23.30;59.20
14604;DHT22;7388;51.078;13.740;2022-08-21T05:13:12;23.30;59.10
14604;DHT22;7388;51.078;13.740;2022-08-21T05:15:39;23.30;59.10
14604;DHT22;7388;51.078;13.740;2022-08-21T05:18:05;23.30;59.10
14604;DHT22;7388;51.078;13.740;2022-08-21T05:20:32;23.40;59.10
14604;DHT22;7388;51.078;13.740;2022-08-21T05:22:59;23.40;59.10
14604;DHT22;7388;51.078;13.740;2022-08-21T05:25:26;23.40;59.10
14604;DHT22;7388;51.078;13.740;2022-08-21T05:27:51;23.40;59.10
14604;DHT22;7388;51.078;13.740;2022-08-21T05:30:19;23.40;59.20
14604;DHT22;7388;51.078;13.740;2022-08-21T05:32:45;23.40;59.10
14604;DHT22;7388;51.078;13.740;2022-08-21T05:35:12;23.50;59.20
14604;DHT22;7388;51.078;13.740;2022-08-21T05:37:37;23.50;59.30
14604;DHT22;7388;51.078;13.740;2022-08-21T05:40:04;23.50;59.20
14604;DHT22;7388;51.078;13.740;2022-08-21T05:42:31;23.50;59.30
14604;DHT22;7388;51.078;13.740;2022-08-21T05:44:57;23.50;59.30
14604;DHT22;7388;51.078;13.740;2022-08-21T05:47:22;23.50;59.10
14604;DHT22;7388;51.078;13.740;2022-08-21T05:49:49;23.60;59.20
14604;DHT22;7388;51.078;13.740;2022-08-21T05:52:21;23.60;59.10
14604;DHT22;7388;51.078;13.740;2022-08-21T05:54:48;23.60;59.00
14604;DHT22;7388;51.078;13.740;2022-08-21T05:57:14;23.60;58.90
14604;DHT22;7388;51.078;13.740;2022-08-21T05:59:40;23.60;59.00
14604;DHT22;7388;51.078;13.740;2022-08-21T06:02:06;23.60;58.90
14604;DHT22;7388;51.078;13.740;2022-08-21T06:04:37;23.70;58.90
14604;DHT22;7388;51.078;13.740;2022-08-21T06:07:04;23.70;58.90
14604;DHT22;7388;51.078;13.740;2022-08-21T06:09:29;23.70;59.10
14604;DHT22;7388;51.078;13.740;2022-08-21T06:11:55;23.70;59.10
14604;DHT22;7388;51.078;13.740;2022-08-21T06:14:21;23.70;59.20
14604;DHT22;7388;51.078;13.740;2022-08-21T06:16:47;23.80;59.30
14604;DHT22;7388;51.078;13.740;2022-08-21T06:19:13;23.80;59.20
14604;DHT22;7388;51.078;13.740;2022-08-21T06:21:38;23.80;59.20
14604;DHT22;7388;51.078;13.740;2022-08-21T06:24:05;23.80;59.20
14604;DHT22;7388;51.078;13.740;2022-08-21T06:26:32;23.90;59.30
14604;DHT22;7388;51.078;13.740;2022-08-21T06:28:58;23.80;59.20
14604;DHT22;7388;51.078;13.740;2022-08-21T06:31:26;23.80;59.20
14604;DHT22;7388;51.078;13.740;2022-08-21T06:33:53;23.90;59.30
14604;DHT22;7388;51.078;13.740;2022-08-21T06:36:19;23.90;59.30
14604;DHT22;7388;51.078;13.740;2022-08-21T06:38:46;23.90;59.30
14604;DHT22;7388;51.078;13.740;2022-08-21T06:41:13;23.90;59.30
14604;DHT22;7388;51.078;13.740;2022-08-21T06:43:39;23.90;59.30
14604;DHT22;7388;51.078;13.740;2022-08-21T06:46:05;24.00;59.30
14604;DHT22;7388;51.078;13.740;2022-08-21T06:48:31;24.00;59.30
14604;DHT22;7388;51.078;13.740;2022-08-21T06:51:00;24.00;59.10
14604;DHT22;7388;51.078;13.740;2022-08-21T06:53:26;24.00;59.10
14604;DHT22;7388;51.078;13.740;2022-08-21T06:55:52;24.00;59.00
14604;DHT22;7388;51.078;13.740;2022-08-21T06:58:17;24.00;59.10
14604;DHT22;7388;51.078;13.740;2022-08-21T07:00:47;24.00;59.10
14604;DHT22;7388;51.078;13.740;2022-08-21T07:03:37;24.00;59.10
14604;DHT22;7388;51.078;13.740;2022-08-21T07:06:05;24.00;58.90
14604;DHT22;7388;51.078;13.740;2022-08-21T07:08:31;24.00;59.10
14604;DHT22;7388;51.078;13.740;2022-08-21T07:10:59;24.00;59.10
14604;DHT22;7388;51.078;13.740;2022-08-21T07:13:26;24.10;59.20
14604;DHT22;7388;51.078;13.740;2022-08-21T07:15:52;24.10;59.10
14604;DHT22;7388;51.078;13.740;2022-08-21T07:18:18;24.10;59.00
14604;DHT22;7388;51.078;13.740;2022-08-21T07:20:45;24.10;58.90
14604;DHT22;7388;51.078;13.740;2022-08-21T07:23:24;24.10;58.90
14604;DHT22;7388;51.078;13.740;2022-08-21T07:25:52;24.10;59.00
14604;DHT22;7388;51.078;13.740;2022-08-21T07:28:18;24.10;59.00
14604;DHT22;7388;51.078;13.740;2022-08-21T07:30:44;24.10;59.00
14604;DHT22;7388;51.078;13.740;2022-08-21T07:33:11;24.10;58.90
14604;DHT22;7388;51.078;13.740;2022-08-21T07:35:37;24.10;58.90
14604;DHT22;7388;51.078;13.740;2022-08-21T07:38:03;24.10;58.90
14604;DHT22;7388;51.078;13.740;2022-08-21T07:40:29;24.10;58.90
14604;DHT22;7388;51.078;13.740;2022-08-21T07:42:55;24.20;58.80
14604;DHT22;7388;51.078;13.740;2022-08-21T07:45:21;24.20;58.80
14604;DHT22;7388;51.078;13.740;2022-08-21T07:47:49;24.30;58.70
14604;DHT22;7388;51.078;13.740;2022-08-21T07:50:15;24.30;58.70
14604;DHT22;7388;51.078;13.740;2022-08-21T07:52:42;24.30;58.70
14604;DHT22;7388;51.078;13.740;2022-08-21T07:55:12;24.30;58.70
14604;DHT22;7388;51.078;13.740;2022-08-21T07:57:38;24.30;58.70
14604;DHT22;7388;51.078;13.740;2022-08-21T08:00:06;24.30;58.60
14604;DHT22;7388;51.078;13.740;2022-08-21T08:02:33;24.30;58.50
14604;DHT22;7388;51.078;13.740;2022-08-21T08:05:00;24.30;58.60
14604;DHT22;7388;51.078;13.740;2022-08-21T08:07:26;24.40;58.60
14604;DHT22;7388;51.078;13.740;2022-08-21T08:09:52;24.40;58.50
14604;DHT22;7388;51.078;13.740;2022-08-21T08:12:18;24.40;58.30
14604;DHT22;7388;51.078;13.740;2022-08-21T08:14:44;24.40;58.10
14604;DHT22;7388;51.078;13.740;2022-08-21T08:17:09;24.40;58.00
14604;DHT22;7388;51.078;13.740;2022-08-21T08:19:35;24.40;57.80
14604;DHT22;7388;51.078;13.740;2022-08-21T08:22:01;24.40;58.00
14604;DHT22;7388;51.078;13.740;2022-08-21T08:24:40;24.40;58.10
14604;DHT22;7388;51.078;13.740;2022-08-21T08:27:06;24.40;57.80
14604;DHT22;7388;51.078;13.740;2022-08-21T08:29:32;24.40;57.90
14604;DHT22;7388;51.078;13.740;2022-08-21T08:31:58;24.40;57.90
14604;DHT22;7388;51.078;13.740;2022-08-21T08:34:24;24.50;58.00
14604;DHT22;7388;51.078;13.740;2022-08-21T08:36:50;24.50;57.80
14604;DHT22;7388;51.078;13.740;2022-08-21T08:39:16;24.50;57.60
14604;DHT22;7388;51.078;13.740;2022-08-21T08:41:44;24.60;57.80
14604;DHT22;7388;51.078;13.740;2022-08-21T08:44:10;24.50;57.80
14604;DHT22;7388;51.078;13.740;2022-08-21T08:46:41;24.60;57.60
14604;DHT22;7388;51.078;13.740;2022-08-21T08:52:18;24.60;58.00
14604;DHT22;7388;51.078;13.740;2022-08-21T08:57:32;24.60;57.10
14604;DHT22;7388;51.078;13.740;2022-08-21T09:00:01;24.60;56.90
14604;DHT22;7388;51.078;13.740;2022-08-21T09:02:28;24.60;57.90
14604;DHT22;7388;51.078;13.740;2022-08-21T09:04:54;24.60;56.50
14604;DHT22;7388;51.078;13.740;2022-08-21T09:10:20;24.70;57.20
14604;DHT22;7388;51.078;13.740;2022-08-21T09:26:24;24.90;56.70
14604;DHT22;7388;51.078;13.740;2022-08-21T09:28:56;24.90;56.20
14604;DHT22;7388;51.078;13.740;2022-08-21T09:31:26;24.90;56.50
14604;DHT22;7388;51.078;13.740;2022-08-21T09:34:03;24.90;55.40
14604;DHT22;7388;51.078;13.740;2022-08-21T09:39:05;25.00;55.40
14604;DHT22;7388;51.078;13.740;2022-08-21T09:41:33;25.00;55.20
14604;DHT22;7388;51.078;13.740;2022-08-21T09:44:01;25.10;54.70
14604;DHT22;7388;51.078;13.740;2022-08-21T09:46:27;25.10;54.40
14604;DHT22;7388;51.078;13.740;2022-08-21T09:49:02;25.10;54.80
14604;DHT22;7388;51.078;13.740;2022-08-21T09:51:30;25.10;53.90
14604;DHT22;7388;51.078;13.740;2022-08-21T09:59:39;25.10;53.20
14604;DHT22;7388;51.078;13.740;2022-08-21T10:02:24;25.00;54.00
14604;DHT22;7388;51.078;13.740;2022-08-21T10:04:59;25.00;53.30
14604;DHT22;7388;51.078;13.740;2022-08-21T10:07:28;25.00;53.50
14604;DHT22;7388;51.078;13.740;2022-08-21T10:10:04;25.00;53.60
14604;DHT22;7388;51.078;13.740;2022-08-21T10:18:46;25.10;52.50
14604;DHT22;7388;51.078;13.740;2022-08-21T10:21:27;25.10;52.10
14604;DHT22;7388;51.078;13.740;2022-08-21T10:24:24;25.00;52.10
14604;DHT22;7388;51.078;13.740;2022-08-21T10:30:02;25.10;52.00
14604;DHT22;7388;51.078;13.740;2022-08-21T10:40:51;25.20;50.50
14604;DHT22;7388;51.078;13.740;2022-08-21T10:49:59;25.20;49.50
14604;DHT22;7388;51.078;13.740;2022-08-21T10:55:39;25.20;49.50
14604;DHT22;7388;51.078;13.740;2022-08-21T10:58:28;25.20;49.60
14604;DHT22;7388;51.078;13.740;2022-08-21T11:01:23;25.20;49.50
14604;DHT22;7388;51.078;13.740;2022-08-21T11:04:20;25.30;49.50
14604;DHT22;7388;51.078;13.740;2022-08-21T11:07:18;25.30;49.10
14604;DHT22;7388;51.078;13.740;2022-08-21T11:09:47;25.30;48.90
14604;DHT22;7388;51.078;13.740;2022-08-21T11:12:46;25.30;49.10
14604;DHT22;7388;51.078;13.740;2022-08-21T11:15:31;25.50;49.30
14604;DHT22;7388;51.078;13.740;2022-08-21T11:21:12;25.60;48.00
14604;DHT22;7388;51.078;13.740;2022-08-21T11:26:52;25.70;48.00
14604;DHT22;7388;51.078;13.740;2022-08-21T11:29:25;25.80;46.80
14604;DHT22;7388;51.078;13.740;2022-08-21T11:43:42;26.40;46.20
14604;DHT22;7388;51.078;13.740;2022-08-21T11:46:44;26.50;45.20
14604;DHT22;7388;51.078;13.740;2022-08-21T11:52:01;26.80;43.40
14604;DHT22;7388;51.078;13.740;2022-08-21T11:54:46;26.80;43.00
14604;DHT22;7388;51.078;13.740;2022-08-21T11:57:31;26.90;41.10
14604;DHT22;7388;51.078;13.740;2022-08-21T12:00:11;27.00;42.80
14604;DHT22;7388;51.078;13.740;2022-08-21T12:02:45;27.10;42.40
14604;DHT22;7388;51.078;13.740;2022-08-21T12:05:30;27.30;42.80
14604;DHT22;7388;51.078;13.740;2022-08-21T12:08:06;27.30;41.60
14604;DHT22;7388;51.078;13.740;2022-08-21T12:10:41;27.40;41.30
14604;DHT22;7388;51.078;13.740;2022-08-21T12:13:28;27.50;40.90
14604;DHT22;7388;51.078;13.740;2022-08-21T12:16:24;27.50;39.30
14604;DHT22;7388;51.078;13.740;2022-08-21T12:19:07;27.60;40.00
14604;DHT22;7388;51.078;13.740;2022-08-21T12:21:47;27.60;39.40
14604;DHT22;7388;51.078;13.740;2022-08-21T12:29:32;28.00;38.40
14604;DHT22;7388;51.078;13.740;2022-08-21T12:35:02;28.40;39.10
14604;DHT22;7388;51.078;13.740;2022-08-21T12:37:39;28.50;37.40
14604;DHT22;7388;51.078;13.740;2022-08-21T12:42:46;28.50;37.50
14604;DHT22;7388;51.078;13.740;2022-08-21T12:45:37;28.60;37.30
14604;DHT22;7388;51.078;13.740;2022-08-21T12:48:18;28.50;37.00
14604;DHT22;7388;51.078;13.740;2022-08-21T12:50:54;28.40;37.00
14604;DHT22;7388;51.078;13.740;2022-08-21T12:53:27;28.40;35.80
14604;DHT22;7388;51.078;13.740;2022-08-21T12:55:54;28.50;37.60
14604;DHT22;7388;51.078;13.740;2022-08-21T12:58:25;28.50;36.00
14604;DHT22;7388;51.078;13.740;2022-08-21T13:04:17;28.50;35.70
14604;DHT22;7388;51.078;13.740;2022-08-21T13:06:48;28.50;36.70
14604;DHT22;7388;51.078;13.740;2022-08-21T13:09:18;28.40;36.50
14604;DHT22;7388;51.078;13.740;2022-08-21T13:11:47;28.30;37.00
14604;DHT22;7388;51.078;13.740;2022-08-21T13:14:40;28.30;36.90
14604;DHT22;7388;51.078;13.740;2022-08-21T13:17:07;28.20;36.30
14604;DHT22;7388;51.078;13.740;2022-08-21T13:19:34;28.30;37.10
14604;DHT22;7388;51.078;13.740;2022-08-21T13:22:00;28.30;37.00
14604;DHT22;7388;51.078;13.740;2022-08-21T13:24:28;28.30;36.80
14604;DHT22;7388;51.078;13.740;2022-08-21T13:26:55;28.30;36.80
14604;DHT22;7388;51.078;13.740;2022-08-21T13:29:27;28.30;36.90
14604;DHT22;7388;51.078;13.740;2022-08-21T13:31:57;28.20;35.50
14604;DHT22;7388;51.078;13.740;2022-08-21T13:34:28;28.10;36.20
14604;DHT22;7388;51.078;13.740;2022-08-21T13:36:58;28.10;37.00
14604;DHT22;7388;51.078;13.740;2022-08-21T13:39:25;28.10;37.30
14604;DHT22;7388;51.078;13.740;2022-08-21T13:41:54;28.20;35.90
14604;DHT22;7388;51.078;13.740;2022-08-21T13:44:31;28.10;35.80
14604;DHT22;7388;51.078;13.740;2022-08-21T13:47:00;28.00;35.70
14604;DHT22;7388;51.078;13.740;2022-08-21T13:49:31;28.00;35.30
14604;DHT22;7388;51.078;13.740;2022-08-21T13:51:57;28.00;36.10
14604;DHT22;7388;51.078;13.740;2022-08-21T13:54:33;28.10;36.20
14604;DHT22;7388;51.078;13.740;2022-08-21T13:56:59;28.10;35.50
14604;DHT22;7388;51.078;13.740;2022-08-21T13:59:43;28.10;35.50
14604;DHT22;7388;51.078;13.740;2022-08-21T14:02:20;28.10;35.30
14604;DHT22;7388;51.078;13.740;2022-08-21T14:04:58;28.10;36.20
14604;DHT22;7388;51.078;13.740;2022-08-21T14:07:29;28.20;36.00
14604;DHT22;7388;51.078;13.740;2022-08-21T14:10:01;28.20;36.30
14604;DHT22;7388;51.078;13.740;2022-08-21T14:12:47;28.20;35.70
14604;DHT22;7388;51.078;13.740;2022-08-21T14:15:15;28.20;36.30
14604;DHT22;7388;51.078;13.740;2022-08-21T14:17:45;28.20;36.10
14604;DHT22;7388;51.078;13.740;2022-08-21T14:20:33;28.30;36.60
14604;DHT22;7388;51.078;13.740;2022-08-21T14:22:59;28.30;36.10
14604;DHT22;7388;51.078;13.740;2022-08-21T14:27:54;28.20;35.50
14604;DHT22;7388;51.078;13.740;2022-08-21T14:30:29;28.20;35.40
14604;DHT22;7388;51.078;13.740;2022-08-21T14:32:56;28.20;35.70
14604;DHT22;7388;51.078;13.740;2022-08-21T14:35:22;28.00;36.00
14604;DHT22;7388;51.078;13.740;2022-08-21T14:37:49;28.00;35.60
14604;DHT22;7388;51.078;13.740;2022-08-21T14:40:19;28.00;35.90
14604;DHT22;7388;51.078;13.740;2022-08-21T14:42:46;27.80;34.00
14604;DHT22;7388;51.078;13.740;2022-08-21T14:45:18;28.00;35.20
14604;DHT22;7388;51.078;13.740;2022-08-21T14:47:45;28.00;36.10
14604;DHT22;7388;51.078;13.740;2022-08-21T14:50:12;28.10;35.70
14604;DHT22;7388;51.078;13.740;2022-08-21T14:52:40;28.20;36.20
14604;DHT22;7388;51.078;13.740;2022-08-21T14:55:07;28.30;35.40
14604;DHT22;7388;51.078;13.740;2022-08-21T14:57:36;28.40;35.00
14604;DHT22;7388;51.078;13.740;2022-08-21T15:00:04;28.50;33.60
14604;DHT22;7388;51.078;13.740;2022-08-21T15:02:30;28.60;34.60
14604;DHT22;7388;51.078;13.740;2022-08-21T15:04:56;28.70;34.90
14604;DHT22;7388;51.078;13.740;2022-08-21T15:07:22;28.70;34.00
14604;DHT22;7388;51.078;13.740;2022-08-21T15:09:47;28.70;34.30
14604;DHT22;7388;51.078;13.740;2022-08-21T15:12:14;28.70;33.60
14604;DHT22;7388;51.078;13.740;2022-08-21T15:14:40;28.70;34.10
14604;DHT22;7388;51.078;13.740;2022-08-21T15:17:08;28.70;34.90
14604;DHT22;7388;51.078;13.740;2022-08-21T15:19:34;28.70;34.50
14604;DHT22;7388;51.078;13.740;2022-08-21T15:22:01;28.70;33.30
14604;DHT22;7388;51.078;13.740;2022-08-21T15:24:26;28.70;33.60
14604;DHT22;7388;51.078;13.740;2022-08-21T15:26:54;28.70;33.90
14604;DHT22;7388;51.078;13.740;2022-08-21T15:29:20;28.70;33.40
14604;DHT22;7388;51.078;13.740;2022-08-21T15:31:53;28.70;33.60
14604;DHT22;7388;51.078;13.740;2022-08-21T15:34:19;28.70;33.70
14604;DHT22;7388;51.078;13.740;2022-08-21T15:36:45;28.60;34.40
14604;DHT22;7388;51.078;13.740;2022-08-21T15:39:11;28.60;33.80
14604;DHT22;7388;51.078;13.740;2022-08-21T15:41:37;28.50;32.80
14604;DHT22;7388;51.078;13.740;2022-08-21T15:44:03;28.40;33.60
14604;DHT22;7388;51.078;13.740;2022-08-21T15:46:29;28.30;33.30
14604;DHT22;7388;51.078;13.740;2022-08-21T15:48:54;28.20;34.00
14604;DHT22;7388;51.078;13.740;2022-08-21T15:51:20;28.20;34.70
14604;DHT22;7388;51.078;13.740;2022-08-21T15:53:46;28.20;33.10
14604;DHT22;7388;51.078;13.740;2022-08-21T15:58:49;28.20;34.10
14604;DHT22;7388;51.078;13.740;2022-08-21T16:01:16;28.10;34.50
14604;DHT22;7388;51.078;13.740;2022-08-21T16:03:43;28.00;34.30
14604;DHT22;7388;51.078;13.740;2022-08-21T16:06:11;28.00;34.30
14604;DHT22;7388;51.078;13.740;2022-08-21T16:08:37;27.90;33.30
14604;DHT22;7388;51.078;13.740;2022-08-21T16:11:03;27.80;33.30
14604;DHT22;7388;51.078;13.740;2022-08-21T16:13:35;27.70;33.10
14604;DHT22;7388;51.078;13.740;2022-08-21T16:16:02;27.50;33.70
14604;DHT22;7388;51.078;13.740;2022-08-21T16:18:27;27.50;34.20
14604;DHT22;7388;51.078;13.740;2022-08-21T16:20:53;27.30;34.40
14604;DHT22;7388;51.078;13.740;2022-08-21T16:23:19;27.20;34.50
14604;DHT22;7388;51.078;13.740;2022-08-21T16:25:45;27.10;34.60
14604;DHT22;7388;51.078;13.740;2022-08-21T16:28:14;27.00;34.40
14604;DHT22;7388;51.078;13.740;2022-08-21T16:30:43;26.90;34.10
14604;DHT22;7388;51.078;13.740;2022-08-21T16:33:19;26.80;34.90
14604;DHT22;7388;51.078;13.740;2022-08-21T16:35:45;26.70;34.50
14604;DHT22;7388;51.078;13.740;2022-08-21T16:38:12;26.50;35.30
14604;DHT22;7388;51.078;13.740;2022-08-21T16:40:38;26.40;35.40
14604;DHT22;7388;51.078;13.740;2022-08-21T16:43:04;26.40;35.60
14604;DHT22;7388;51.078;13.740;2022-08-21T16:45:29;26.30;35.90
14604;DHT22;7388;51.078;13.740;2022-08-21T16:47:55;26.20;36.10
14604;DHT22;7388;51.078;13.740;2022-08-21T16:50:23;26.20;36.40
14604;DHT22;7388;51.078;13.740;2022-08-21T16:52:49;26.00;36.80
14604;DHT22;7388;51.078;13.740;2022-08-21T16:55:16;26.00;36.40
14604;DHT22;7388;51.078;13.740;2022-08-21T16:57:42;25.90;36.40
14604;DHT22;7388;51.078;13.740;2022-08-21T17:00:08;25.90;36.10
14604;DHT22;7388;51.078;13.740;2022-08-21T17:02:43;25.80;36.30
14604;DHT22;7388;51.078;13.740;2022-08-21T17:05:10;25.80;35.90
14604;DHT22;7388;51.078;13.740;2022-08-21T17:07:37;25.80;35.80
14604;DHT22;7388;51.078;13.740;2022-08-21T17:10:05;25.80;35.80
14604;DHT22;7388;51.078;13.740;2022-08-21T17:12:33;25.80;36.00
14604;DHT22;7388;51.078;13.740;2022-08-21T17:15:05;25.70;36.00
14604;DHT22;7388;51.078;13.740;2022-08-21T17:17:33;25.70;35.80
14604;DHT22;7388;51.078;13.740;2022-08-21T17:19:59;25.70;36.00
14604;DHT22;7388;51.078;13.740;2022-08-21T17:22:25;25.70;36.20
14604;DHT22;7388;51.078;13.740;2022-08-21T17:24:51;25.60;36.10